sensor_id;sensor_type;location;lat;lon;timestamp;temperature;humidity
40291;DHT22;26000;48.304;13.626;2023-05-16T00:01:17;10.90;99.90
40291;DHT22;26000;48.304;13.626;2023-05-16T00:03:43;10.90;99.90
40291;DHT22;26000;48.304;13.626;2023-05-16T00:06:09;10.90;99.90
40291;DHT22;26000;48.304;13.626;2023-05-16T00:08:35;10.90;99.90
40291;DHT22;26000;48.304;13.626;2023-05-16T00:11:01;10.90;99.90
40291;DHT22;26000;48.304;13.626;2023-05-16T00:13:28;11.00;99.90
40291;DHT22;26000;48.304;13.626;2023-05-16T00:15:54;11.00;99.90
40291;DHT22;26000;48.304;13.626;2023-05-16T00:18:20;11.00;99.90
40291;DHT22;26000;48.304;13.626;2023-05-16T00:20:47;10.90;99.90
40291;DHT22;26000;48.304;13.626;2023-05-16T00:23:14;10.90;99.90
40291;DHT22;26000;48.304;13.626;2023-05-16T00:25:39;10.90;99.90
40291;DHT22;26000;48.304;13.626;2023-05-16T00:28:06;10.90;99.90
40291;DHT22;26000;48.304;13.626;2023-05-16T00:30:32;10.90;99.90
40291;DHT22;26000;48.304;13.626;2023-05-16T00:32:57;10.90;99.90
40291;DHT22;26000;48.304;13.626;2023-05-16T00:35:23;10.90;99.90
40291;DHT22;26000;48.304;13.626;2023-05-16T00:37:49;10.90;99.90
40291;DHT22;26000;48.304;13.626;2023-05-16T00:40:16;10.90;99.90
40291;DHT22;26000;48.304;13.626;2023-05-16T00:42:41;10.80;99.90
40291;DHT22;26000;48.304;13.626;2023-05-16T00:45:08;10.90;99.90
40291;DHT22;26000;48.304;13.626;2023-05-16T00:47:34;10.90;99.90
40291;DHT22;26000;48.304;13.626;2023-05-16T00:50:00;10.80;99.90
40291;DHT22;26000;48.304;13.626;2023-05-16T00:52:26;10.90;99.90
40291;DHT22;26000;48.304;13.626;2023-05-16T00:54:53;10.80;99.90
40291;DHT22;26000;48.304;13.626;2023-05-16T00:57:19;10.80;99.90
40291;DHT22;26000;48.304;13.626;2023-05-16T00:59:46;10.70;99.90
40291;DHT22;26000;48.304;13.626;2023-05-16T01:02:12;10.70;99.90
40291;DHT22;26000;48.304;13.626;2023-05-16T01:04:38;10.60;99.90
40291;DHT22;26000;48.304;13.626;2023-05-16T01:07:05;10.60;99.90
40291;DHT22;26000;48.304;13.626;2023-05-16T01:09:30;10.60;99.90
40291;DHT22;26000;48.304;13.626;2023-05-16T01:15:14;10.60;99.90
40291;DHT22;26000;48.304;13.626;2023-05-16T01:20:36;10.60;99.90
40291;DHT22;26000;48.304;13.626;2023-05-16T01:26:15;10.60;99.90
40291;DHT22;26000;48.304;13.626;2023-05-16T01:28:46;10.60;99.90
40291;DHT22;26000;48.304;13.626;2023-05-16T01:31:12;10.50;99.90
40291;DHT22;26000;48.304;13.626;2023-05-16T01:33:38;10.50;99.90
40291;DHT22;26000;48.304;13.626;2023-05-16T01:41:46;10.40;99.90
40291;DHT22;26000;48.304;13.626;2023-05-16T01:44:36;10.40;99.90
40291;DHT22;26000;48.304;13.626;2023-05-16T01:47:09;10.50;99.90
40291;DHT22;26000;48.304;13.626;2023-05-16T01:49:40;10.50;99.90
40291;DHT22;26000;48.304;13.626;2023-05-16T01:52:14;10.40;99.90
40291;DHT22;26000;48.304;13.626;2023-05-16T01:54:44;10.40;99.90
40291;DHT22;26000;48.304;13.626;2023-05-16T01:57:10;10.40;99.90
40291;DHT22;26000;48.304;13.626;2023-05-16T01:59:38;10.30;99.90
40291;DHT22;26000;48.304;13.626;2023-05-16T02:02:04;10.30;99.90
40291;DHT22;26000;48.304;13.626;2023-05-16T02:04:30;10.30;99.90
40291;DHT22;26000;48.304;13.626;2023-05-16T02:06:56;10.30;99.90
40291;DHT22;26000;48.304;13.626;2023-05-16T02:09:22;10.30;99.90
40291;DHT22;26000;48.304;13.626;2023-05-16T02:11:47;10.20;99.90
40291;DHT22;26000;48.304;13.626;2023-05-16T02:14:13;10.20;99.90
40291;DHT22;26000;48.304;13.626;2023-05-16T02:16:39;10.20;99.90
40291;DHT22;26000;48.304;13.626;2023-05-16T02:19:04;10.20;99.90
40291;DHT22;26000;48.304;13.626;2023-05-16T02:21:30;10.10;99.90
40291;DHT22;26000;48.304;13.626;2023-05-16T02:23:56;10.10;99.90
40291;DHT22;26000;48.304;13.626;2023-05-16T02:26:21;10.10;99.90
40291;DHT22;26000;48.304;13.626;2023-05-16T02:28:47;10.00;99.90
40291;DHT22;26000;48.304;13.626;2023-05-16T02:31:28;10.00;99.90
40291;DHT22;26000;48.304;13.626;2023-05-16T02:33:54;10.00;99.90
40291;DHT22;26000;48.304;13.626;2023-05-16T02:36:20;10.00;99.90
40291;DHT22;26000;48.304;13.626;2023-05-16T02:38:46;10.10;99.90
40291;DHT22;26000;48.304;13.626;2023-05-16T02:41:11;10.10;99.90
40291;DHT22;26000;48.304;13.626;2023-05-16T02:43:37;10.10;99.90
40291;DHT22;26000;48.304;13.626;2023-05-16T02:46:28;10.10;99.90
40291;DHT22;26000;48.304;13.626;2023-05-16T02:48:55;10.10;99.90
40291;DHT22;26000;48.304;13.626;2023-05-16T02:51:23;10.10;99.90
40291;DHT22;26000;48.304;13.626;2023-05-16T02:53:49;10.10;99.90
40291;DHT22;26000;48.304;13.626;2023-05-16T02:56:15;10.10;99.90
40291;DHT22;26000;48.304;13.626;2023-05-16T02:58:41;10.10;99.90
40291;DHT22;26000;48.304;13.626;2023-05-16T03:01:07;10.10;99.90
40291;DHT22;26000;48.304;13.626;2023-05-16T03:03:33;10.10;99.90
40291;DHT22;26000;48.304;13.626;2023-05-16T03:06:00;10.00;99.90
40291;DHT22;26000;48.304;13.626;2023-05-16T03:08:26;10.00;99.90
40291;DHT22;26000;48.304;13.626;2023-05-16T03:10:51;10.00;99.90
40291;DHT22;26000;48.304;13.626;2023-05-16T03:13:17;10.00;99.90
40291;DHT22;26000;48.304;13.626;2023-05-16T03:15:43;10.00;99.90
40291;DHT22;26000;48.304;13.626;2023-05-16T03:18:09;10.00;99.90
40291;DHT22;26000;48.304;13.626;2023-05-16T03:20:36;9.90;99.90
40291;DHT22;26000;48.304;13.626;2023-05-16T03:23:02;9.90;99.90
40291;DHT22;26000;48.304;13.626;2023-05-16T03:25:28;10.00;99.90
40291;DHT22;26000;48.304;13.626;2023-05-16T03:27:53;10.00;99.90
40291;DHT22;26000;48.304;13.626;2023-05-16T03:30:19;10.00;99.90
40291;DHT22;26000;48.304;13.626;2023-05-16T03:32:45;10.00;99.90
40291;DHT22;26000;48.304;13.626;2023-05-16T03:35:11;10.00;99.90
40291;DHT22;26000;48.304;13.626;2023-05-16T03:37:37;10.00;99.90
40291;DHT22;26000;48.304;13.626;2023-05-16T03:40:03;10.00;99.90
40291;DHT22;26000;48.304;13.626;2023-05-16T03:42:32;10.00;99.90
40291;DHT22;26000;48.304;13.626;2023-05-16T03:44:58;10.00;99.90
40291;DHT22;26000;48.304;13.626;2023-05-16T03:47:23;10.00;99.90
40291;DHT22;26000;48.304;13.626;2023-05-16T03:49:49;10.00;99.90
40291;DHT22;26000;48.304;13.626;2023-05-16T03:52:15;10.10;99.90
40291;DHT22;26000;48.304;13.626;2023-05-16T03:54:40;10.00;99.90
40291;DHT22;26000;48.304;13.626;2023-05-16T03:57:06;10.00;99.90
40291;DHT22;26000;48.304;13.626;2023-05-16T03:59:31;10.10;99.90
40291;DHT22;26000;48.304;13.626;2023-05-16T04:01:58;10.10;99.90
40291;DHT22;26000;48.304;13.626;2023-05-16T04:04:24;10.10;99.90
40291;DHT22;26000;48.304;13.626;2023-05-16T04:06:50;10.20;99.90
40291;DHT22;26000;48.304;13.626;2023-05-16T04:09:16;10.20;99.90
40291;DHT22;26000;48.304;13.626;2023-05-16T04:11:41;10.20;99.90
40291;DHT22;26000;48.304;13.626;2023-05-16T04:14:07;10.20;99.90
40291;DHT22;26000;48.304;13.626;2023-05-16T04:16:33;10.20;99.90
40291;DHT22;26000;48.304;13.626;2023-05-16T04:18:59;10.30;99.90
40291;DHT22;26000;48.304;13.626;2023-05-16T04:21:24;10.30;99.90
40291;DHT22;26000;48.304;13.626;2023-05-16T04:23:50;10.30;99.90
40291;DHT22;26000;48.304;13.626;2023-05-16T04:26:15;10.40;99.90
40291;DHT22;26000;48.304;13.626;2023-05-16T04:28:42;10.40;99.90
40291;DHT22;26000;48.304;13.626;2023-05-16T04:31:07;10.40;99.90
40291;DHT22;26000;48.304;13.626;2023-05-16T04:33:33;10.40;99.90
40291;DHT22;26000;48.304;13.626;2023-05-16T04:35:59;10.40;99.90
40291;DHT22;26000;48.304;13.626;2023-05-16T04:38:25;10.40;99.90
40291;DHT22;26000;48.304;13.626;2023-05-16T04:40:51;10.40;99.90
40291;DHT22;26000;48.304;13.626;2023-05-16T04:43:18;10.50;99.90
40291;DHT22;26000;48.304;13.626;2023-05-16T04:45:44;10.50;99.90
40291;DHT22;26000;48.304;13.626;2023-05-16T04:48:10;10.50;99.90
40291;DHT22;26000;48.304;13.626;2023-05-16T04:50:36;10.50;99.90
40291;DHT22;26000;48.304;13.626;2023-05-16T04:53:02;10.60;99.90
40291;DHT22;26000;48.304;13.626;2023-05-16T04:55:28;10.60;99.90
40291;DHT22;26000;48.304;13.626;2023-05-16T04:57:53;10.70;99.90
40291;DHT22;26000;48.304;13.626;2023-05-16T05:00:20;10.80;99.90
40291;DHT22;26000;48.304;13.626;2023-05-16T05:02:45;10.90;99.90
40291;DHT22;26000;48.304;13.626;2023-05-16T05:05:11;11.00;99.90
40291;DHT22;26000;48.304;13.626;2023-05-16T05:07:37;11.00;99.90
40291;DHT22;26000;48.304;13.626;2023-05-16T05:10:03;11.00;99.90
40291;DHT22;26000;48.304;13.626;2023-05-16T05:12:30;11.00;99.90
40291;DHT22;26000;48.304;13.626;2023-05-16T05:14:55;11.00;99.90
40291;DHT22;26000;48.304;13.626;2023-05-16T05:17:21;11.10;99.90
40291;DHT22;26000;48.304;13.626;2023-05-16T05:19:47;11.10;99.90
40291;DHT22;26000;48.304;13.626;2023-05-16T05:22:13;11.10;99.90
40291;DHT22;26000;48.304;13.626;2023-05-16T05:24:39;11.20;99.90
40291;DHT22;26000;48.304;13.626;2023-05-16T05:27:05;11.30;99.90
40291;DHT22;26000;48.304;13.626;2023-05-16T05:29:30;11.40;99.90
40291;DHT22;26000;48.304;13.626;2023-05-16T05:31:56;11.60;99.90
40291;DHT22;26000;48.304;13.626;2023-05-16T05:34:22;11.70;99.90
40291;DHT22;26000;48.304;13.626;2023-05-16T05:36:47;11.80;99.90
40291;DHT22;26000;48.304;13.626;2023-05-16T05:39:13;12.00;99.90
40291;DHT22;26000;48.304;13.626;2023-05-16T05:41:39;12.10;99.90
40291;DHT22;26000;48.304;13.626;2023-05-16T05:44:05;12.20;99.90
40291;DHT22;26000;48.304;13.626;2023-05-16T05:46:31;12.30;99.90
40291;DHT22;26000;48.304;13.626;2023-05-16T05:48:58;12.30;99.90
40291;DHT22;26000;48.304;13.626;2023-05-16T05:51:24;12.40;99.90
40291;DHT22;26000;48.304;13.626;2023-05-16T05:53:51;12.50;99.90
40291;DHT22;26000;48.304;13.626;2023-05-16T05:56:17;12.50;99.90
40291;DHT22;26000;48.304;13.626;2023-05-16T05:58:43;12.50;99.90
40291;DHT22;26000;48.304;13.626;2023-05-16T06:01:10;12.50;99.90
40291;DHT22;26000;48.304;13.626;2023-05-16T06:03:36;12.50;99.90
40291;DHT22;26000;48.304;13.626;2023-05-16T06:06:03;12.60;99.90
40291;DHT22;26000;48.304;13.626;2023-05-16T06:08:29;12.70;99.90
40291;DHT22;26000;48.304;13.626;2023-05-16T06:10:54;12.80;99.90
40291;DHT22;26000;48.304;13.626;2023-05-16T06:13:20;12.90;99.90
40291;DHT22;26000;48.304;13.626;2023-05-16T06:15:53;12.90;99.90
40291;DHT22;26000;48.304;13.626;2023-05-16T06:18:19;13.00;99.90
40291;DHT22;26000;48.304;13.626;2023-05-16T06:20:45;13.10;99.90
40291;DHT22;26000;48.304;13.626;2023-05-16T06:23:11;13.10;99.90
40291;DHT22;26000;48.304;13.626;2023-05-16T06:25:37;13.10;99.90
40291;DHT22;26000;48.304;13.626;2023-05-16T06:28:03;13.20;99.90
40291;DHT22;26000;48.304;13.626;2023-05-16T06:30:28;13.30;99.90
40291;DHT22;26000;48.304;13.626;2023-05-16T06:32:54;13.40;99.90
40291;DHT22;26000;48.304;13.626;2023-05-16T06:35:20;13.60;99.90
40291;DHT22;26000;48.304;13.626;2023-05-16T06:37:46;13.80;99.90
40291;DHT22;26000;48.304;13.626;2023-05-16T06:40:11;14.00;99.90
40291;DHT22;26000;48.304;13.626;2023-05-16T06:42:37;14.10;99.90
40291;DHT22;26000;48.304;13.626;2023-05-16T06:45:03;14.30;99.90
40291;DHT22;26000;48.304;13.626;2023-05-16T06:47:29;14.40;99.90
40291;DHT22;26000;48.304;13.626;2023-05-16T06:49:54;14.50;99.90
40291;DHT22;26000;48.304;13.626;2023-05-16T06:52:20;14.60;99.90
40291;DHT22;26000;48.304;13.626;2023-05-16T06:54:46;14.70;99.90
40291;DHT22;26000;48.304;13.626;2023-05-16T06:57:12;14.80;99.90
40291;DHT22;26000;48.304;13.626;2023-05-16T06:59:38;15.00;99.90
40291;DHT22;26000;48.304;13.626;2023-05-16T07:02:04;15.30;99.90
40291;DHT22;26000;48.304;13.626;2023-05-16T07:04:30;15.50;99.90
40291;DHT22;26000;48.304;13.626;2023-05-16T07:06:56;15.70;99.90
40291;DHT22;26000;48.304;13.626;2023-05-16T07:09:22;15.80;99.90
40291;DHT22;26000;48.304;13.626;2023-05-16T07:11:47;15.80;99.90
40291;DHT22;26000;48.304;13.626;2023-05-16T07:14:13;15.90;99.90
40291;DHT22;26000;48.304;13.626;2023-05-16T07:16:38;15.80;99.90
40291;DHT22;26000;48.304;13.626;2023-05-16T07:19:04;15.90;99.90
40291;DHT22;26000;48.304;13.626;2023-05-16T07:21:30;15.90;99.90
40291;DHT22;26000;48.304;13.626;2023-05-16T07:23:56;15.90;99.90
40291;DHT22;26000;48.304;13.626;2023-05-16T07:26:22;15.80;99.90
40291;DHT22;26000;48.304;13.626;2023-05-16T07:28:51;15.80;99.90
40291;DHT22;26000;48.304;13.626;2023-05-16T07:31:17;15.80;99.90
40291;DHT22;26000;48.304;13.626;2023-05-16T07:33:43;15.80;99.90
40291;DHT22;26000;48.304;13.626;2023-05-16T07:36:10;15.80;99.90
40291;DHT22;26000;48.304;13.626;2023-05-16T07:38:35;15.80;99.90
40291;DHT22;26000;48.304;13.626;2023-05-16T07:41:01;15.90;99.90
40291;DHT22;26000;48.304;13.626;2023-05-16T07:43:27;15.80;99.90
40291;DHT22;26000;48.304;13.626;2023-05-16T07:45:53;15.80;99.90
40291;DHT22;26000;48.304;13.626;2023-05-16T07:48:18;15.70;99.90
40291;DHT22;26000;48.304;13.626;2023-05-16T07:50:44;15.60;99.90
40291;DHT22;26000;48.304;13.626;2023-05-16T07:53:10;15.40;99.90
40291;DHT22;26000;48.304;13.626;2023-05-16T07:55:35;15.30;99.90
40291;DHT22;26000;48.304;13.626;2023-05-16T07:58:02;15.20;99.90
40291;DHT22;26000;48.304;13.626;2023-05-16T08:00:28;15.20;99.90
40291;DHT22;26000;48.304;13.626;2023-05-16T08:02:54;15.20;99.90
40291;DHT22;26000;48.304;13.626;2023-05-16T08:05:19;15.30;99.90
40291;DHT22;26000;48.304;13.626;2023-05-16T08:07:45;15.40;99.90
40291;DHT22;26000;48.304;13.626;2023-05-16T08:10:11;15.50;99.90
40291;DHT22;26000;48.304;13.626;2023-05-16T08:12:36;15.60;99.90
40291;DHT22;26000;48.304;13.626;2023-05-16T08:15:03;15.60;99.90
40291;DHT22;26000;48.304;13.626;2023-05-16T08:17:28;15.60;99.90
40291;DHT22;26000;48.304;13.626;2023-05-16T08:19:54;15.70;99.90
40291;DHT22;26000;48.304;13.626;2023-05-16T08:22:21;15.80;99.90
40291;DHT22;26000;48.304;13.626;2023-05-16T08:24:46;15.90;99.90
40291;DHT22;26000;48.304;13.626;2023-05-16T08:27:12;15.90;99.90
40291;DHT22;26000;48.304;13.626;2023-05-16T08:29:37;15.90;99.90
40291;DHT22;26000;48.304;13.626;2023-05-16T08:32:04;15.90;99.90
40291;DHT22;26000;48.304;13.626;2023-05-16T08:34:30;15.90;99.90
40291;DHT22;26000;48.304;13.626;2023-05-16T08:36:56;15.90;99.90
40291;DHT22;26000;48.304;13.626;2023-05-16T08:39:22;16.00;99.90
40291;DHT22;26000;48.304;13.626;2023-05-16T08:41:47;16.10;99.90
40291;DHT22;26000;48.304;13.626;2023-05-16T08:44:13;16.20;99.90
40291;DHT22;26000;48.304;13.626;2023-05-16T08:46:50;16.40;99.90
40291;DHT22;26000;48.304;13.626;2023-05-16T08:49:17;16.50;99.90
40291;DHT22;26000;48.304;13.626;2023-05-16T08:51:45;16.50;99.90
40291;DHT22;26000;48.304;13.626;2023-05-16T08:54:12;16.50;99.90
40291;DHT22;26000;48.304;13.626;2023-05-16T08:56:40;16.40;99.90
40291;DHT22;26000;48.304;13.626;2023-05-16T08:59:06;16.40;99.90
40291;DHT22;26000;48.304;13.626;2023-05-16T09:01:32;16.30;99.90
40291;DHT22;26000;48.304;13.626;2023-05-16T09:03:59;16.30;99.90
40291;DHT22;26000;48.304;13.626;2023-05-16T09:06:26;16.30;99.90
40291;DHT22;26000;48.304;13.626;2023-05-16T09:08:52;16.30;99.90
40291;DHT22;26000;48.304;13.626;2023-05-16T09:11:18;16.30;99.90
40291;DHT22;26000;48.304;13.626;2023-05-16T09:13:44;16.30;99.90
40291;DHT22;26000;48.304;13.626;2023-05-16T09:16:19;16.20;99.90
40291;DHT22;26000;48.304;13.626;2023-05-16T09:18:55;16.30;99.90
40291;DHT22;26000;48.304;13.626;2023-05-16T09:21:27;16.20;99.90
40291;DHT22;26000;48.304;13.626;2023-05-16T09:23:53;16.20;99.90
40291;DHT22;26000;48.304;13.626;2023-05-16T09:26:20;16.30;99.90
40291;DHT22;26000;48.304;13.626;2023-05-16T09:28:46;16.40;99.90
40291;DHT22;26000;48.304;13.626;2023-05-16T09:31:19;16.50;99.90
40291;DHT22;26000;48.304;13.626;2023-05-16T09:33:46;16.50;99.90
40291;DHT22;26000;48.304;13.626;2023-05-16T09:36:12;16.60;99.90
40291;DHT22;26000;48.304;13.626;2023-05-16T09:38:39;16.70;99.90
40291;DHT22;26000;48.304;13.626;2023-05-16T09:41:05;17.00;99.90
40291;DHT22;26000;48.304;13.626;2023-05-16T09:43:31;17.40;99.90
40291;DHT22;26000;48.304;13.626;2023-05-16T09:45:58;17.80;99.90
40291;DHT22;26000;48.304;13.626;2023-05-16T09:48:25;18.20;99.90
40291;DHT22;26000;48.304;13.626;2023-05-16T09:50:53;18.30;99.90
40291;DHT22;26000;48.304;13.626;2023-05-16T09:53:30;18.40;99.90
40291;DHT22;26000;48.304;13.626;2023-05-16T09:58:37;18.40;99.90
40291;DHT22;26000;48.304;13.626;2023-05-16T10:01:04;18.30;99.90
40291;DHT22;26000;48.304;13.626;2023-05-16T10:03:33;18.10;99.90
40291;DHT22;26000;48.304;13.626;2023-05-16T10:05:59;18.00;99.90
40291;DHT22;26000;48.304;13.626;2023-05-16T10:08:26;17.90;99.90
40291;DHT22;26000;48.304;13.626;2023-05-16T10:10:53;17.80;99.90
40291;DHT22;26000;48.304;13.626;2023-05-16T10:13:29;17.70;99.90
40291;DHT22;26000;48.304;13.626;2023-05-16T10:15:56;17.70;99.90
40291;DHT22;26000;48.304;13.626;2023-05-16T10:18:27;17.60;99.90
40291;DHT22;26000;48.304;13.626;2023-05-16T10:20:55;17.30;99.90
40291;DHT22;26000;48.304;13.626;2023-05-16T10:23:24;17.20;99.90
40291;DHT22;26000;48.304;13.626;2023-05-16T10:25:51;17.10;99.90
40291;DHT22;26000;48.304;13.626;2023-05-16T10:28:17;17.00;99.90
40291;DHT22;26000;48.304;13.626;2023-05-16T10:30:46;17.00;99.90
40291;DHT22;26000;48.304;13.626;2023-05-16T10:33:14;16.90;99.90
40291;DHT22;26000;48.304;13.626;2023-05-16T10:35:41;16.90;99.90
40291;DHT22;26000;48.304;13.626;2023-05-16T10:38:08;16.90;99.90
40291;DHT22;26000;48.304;13.626;2023-05-16T10:40:35;16.80;99.90
40291;DHT22;26000;48.304;13.626;2023-05-16T10:43:03;16.80;99.90
40291;DHT22;26000;48.304;13.626;2023-05-16T10:45:30;16.80;99.90
40291;DHT22;26000;48.304;13.626;2023-05-16T10:48:02;16.80;99.90
40291;DHT22;26000;48.304;13.626;2023-05-16T10:50:37;16.80;99.90
40291;DHT22;26000;48.304;13.626;2023-05-16T11:06:30;17.00;99.90
40291;DHT22;26000;48.304;13.626;2023-05-16T11:11:41;17.20;99.90
40291;DHT22;26000;48.304;13.626;2023-05-16T11:14:08;17.30;99.90
40291;DHT22;26000;48.304;13.626;2023-05-16T11:16:35;17.50;99.90
40291;DHT22;26000;48.304;13.626;2023-05-16T11:19:07;17.40;99.90
40291;DHT22;26000;48.304;13.626;2023-05-16T11:22:07;17.30;99.90
40291;DHT22;26000;48.304;13.626;2023-05-16T11:24:34;17.30;99.90
40291;DHT22;26000;48.304;13.626;2023-05-16T11:27:01;17.30;99.90
40291;DHT22;26000;48.304;13.626;2023-05-16T11:29:30;17.30;99.90
40291;DHT22;26000;48.304;13.626;2023-05-16T11:32:04;17.30;99.90
40291;DHT22;26000;48.304;13.626;2023-05-16T11:34:30;17.20;99.90
40291;DHT22;26000;48.304;13.626;2023-05-16T11:36:57;17.30;99.90
40291;DHT22;26000;48.304;13.626;2023-05-16T11:39:24;17.30;99.90
40291;DHT22;26000;48.304;13.626;2023-05-16T11:41:50;17.30;99.90
40291;DHT22;26000;48.304;13.626;2023-05-16T11:44:16;17.30;99.90
40291;DHT22;26000;48.304;13.626;2023-05-16T11:46:42;17.30;99.90
40291;DHT22;26000;48.304;13.626;2023-05-16T11:49:08;17.30;99.90
40291;DHT22;26000;48.304;13.626;2023-05-16T11:51:40;17.40;99.90
40291;DHT22;26000;48.304;13.626;2023-05-16T11:54:09;17.40;99.90
40291;DHT22;26000;48.304;13.626;2023-05-16T11:56:35;17.50;99.90
40291;DHT22;26000;48.304;13.626;2023-05-16T11:59:01;17.50;99.90
40291;DHT22;26000;48.304;13.626;2023-05-16T12:01:34;17.50;99.90
40291;DHT22;26000;48.304;13.626;2023-05-16T12:04:00;17.40;99.90
40291;DHT22;26000;48.304;13.626;2023-05-16T12:06:26;17.40;99.90
40291;DHT22;26000;48.304;13.626;2023-05-16T12:08:53;17.20;99.90
40291;DHT22;26000;48.304;13.626;2023-05-16T12:11:21;17.10;99.90
40291;DHT22;26000;48.304;13.626;2023-05-16T12:13:47;17.00;99.90
40291;DHT22;26000;48.304;13.626;2023-05-16T12:16:13;17.20;99.90
40291;DHT22;26000;48.304;13.626;2023-05-16T12:18:39;17.10;99.90
40291;DHT22;26000;48.304;13.626;2023-05-16T12:21:05;16.70;99.90
40291;DHT22;26000;48.304;13.626;2023-05-16T12:23:34;16.30;99.90
40291;DHT22;26000;48.304;13.626;2023-05-16T12:26:02;15.80;99.90
40291;DHT22;26000;48.304;13.626;2023-05-16T12:28:32;15.10;99.90
40291;DHT22;26000;48.304;13.626;2023-05-16T12:30:59;14.80;99.90
40291;DHT22;26000;48.304;13.626;2023-05-16T12:33:25;14.70;99.90
40291;DHT22;26000;48.304;13.626;2023-05-16T12:35:51;14.70;99.90
40291;DHT22;26000;48.304;13.626;2023-05-16T12:38:19;14.60;99.90
40291;DHT22;26000;48.304;13.626;2023-05-16T12:40:46;14.60;99.90
40291;DHT22;26000;48.304;13.626;2023-05-16T12:43:20;14.50;99.90
40291;DHT22;26000;48.304;13.626;2023-05-16T12:45:50;14.50;99.90
40291;DHT22;26000;48.304;13.626;2023-05-16T12:48:20;14.50;99.90
40291;DHT22;26000;48.304;13.626;2023-05-16T12:50:46;14.60;99.90
40291;DHT22;26000;48.304;13.626;2023-05-16T12:53:14;14.50;99.90
40291;DHT22;26000;48.304;13.626;2023-05-16T12:55:41;14.50;99.90
40291;DHT22;26000;48.304;13.626;2023-05-16T12:58:08;14.40;99.90
40291;DHT22;26000;48.304;13.626;2023-05-16T13:00:35;14.40;99.90
40291;DHT22;26000;48.304;13.626;2023-05-16T13:03:02;14.60;99.90
40291;DHT22;26000;48.304;13.626;2023-05-16T13:05:28;14.80;99.90
40291;DHT22;26000;48.304;13.626;2023-05-16T13:07:54;14.80;99.90
40291;DHT22;26000;48.304;13.626;2023-05-16T13:10:20;14.90;99.90
40291;DHT22;26000;48.304;13.626;2023-05-16T13:12:46;15.00;99.90
40291;DHT22;26000;48.304;13.626;2023-05-16T13:15:12;15.00;99.90
40291;DHT22;26000;48.304;13.626;2023-05-16T13:17:40;15.00;99.90
40291;DHT22;26000;48.304;13.626;2023-05-16T13:20:07;15.10;99.90
40291;DHT22;26000;48.304;13.626;2023-05-16T13:22:37;15.30;99.90
40291;DHT22;26000;48.304;13.626;2023-05-16T13:25:04;15.40;99.90
40291;DHT22;26000;48.304;13.626;2023-05-16T13:27:31;15.40;99.90
40291;DHT22;26000;48.304;13.626;2023-05-16T13:29:57;15.50;99.90
40291;DHT22;26000;48.304;13.626;2023-05-16T13:32:23;15.60;99.90
40291;DHT22;26000;48.304;13.626;2023-05-16T13:34:49;15.60;99.90
40291;DHT22;26000;48.304;13.626;2023-05-16T13:37:16;15.60;99.90
40291;DHT22;26000;48.304;13.626;2023-05-16T13:39:41;15.60;99.90
40291;DHT22;26000;48.304;13.626;2023-05-16T13:42:07;15.60;99.90
40291;DHT22;26000;48.304;13.626;2023-05-16T13:44:32;15.60;99.90
40291;DHT22;26000;48.304;13.626;2023-05-16T13:46:58;15.40;99.90
40291;DHT22;26000;48.304;13.626;2023-05-16T13:49:24;15.40;99.90
40291;DHT22;26000;48.304;13.626;2023-05-16T13:51:50;15.30;99.90
40291;DHT22;26000;48.304;13.626;2023-05-16T13:54:17;15.40;99.90
40291;DHT22;26000;48.304;13.626;2023-05-16T13:56:43;15.40;99.90
40291;DHT22;26000;48.304;13.626;2023-05-16T13:59:08;15.50;99.90
40291;DHT22;26000;48.304;13.626;2023-05-16T14:01:34;15.50;99.90
40291;DHT22;26000;48.304;13.626;2023-05-16T14:04:01;15.50;99.90
40291;DHT22;26000;48.304;13.626;2023-05-16T14:06:27;15.50;99.90
40291;DHT22;26000;48.304;13.626;2023-05-16T14:08:53;15.40;99.90
40291;DHT22;26000;48.304;13.626;2023-05-16T14:11:18;15.50;99.90
40291;DHT22;26000;48.304;13.626;2023-05-16T14:13:47;15.50;99.90
40291;DHT22;26000;48.304;13.626;2023-05-16T14:16:13;15.50;99.90
40291;DHT22;26000;48.304;13.626;2023-05-16T14:18:39;15.50;99.90
40291;DHT22;26000;48.304;13.626;2023-05-16T14:21:05;15.50;99.90
40291;DHT22;26000;48.304;13.626;2023-05-16T14:23:30;15.40;99.90
40291;DHT22;26000;48.304;13.626;2023-05-16T14:25:56;15.40;99.90
40291;DHT22;26000;48.304;13.626;2023-05-16T14:28:22;15.30;99.90
40291;DHT22;26000;48.304;13.626;2023-05-16T14:30:47;15.20;99.90
40291;DHT22;26000;48.304;13.626;2023-05-16T14:33:13;15.20;99.90
40291;DHT22;26000;48.304;13.626;2023-05-16T14:35:39;15.10;99.90
40291;DHT22;26000;48.304;13.626;2023-05-16T14:38:05;15.00;99.90
40291;DHT22;26000;48.304;13.626;2023-05-16T14:40:32;15.00;99.90
40291;DHT22;26000;48.304;13.626;2023-05-16T14:42:58;15.00;99.90
40291;DHT22;26000;48.304;13.626;2023-05-16T14:45:24;14.90;99.90
40291;DHT22;26000;48.304;13.626;2023-05-16T14:47:50;14.80;99.90
40291;DHT22;26000;48.304;13.626;2023-05-16T14:50:16;14.70;99.90
40291;DHT22;26000;48.304;13.626;2023-05-16T14:52:42;14.70;99.90
40291;DHT22;26000;48.304;13.626;2023-05-16T14:55:08;14.70;99.90
40291;DHT22;26000;48.304;13.626;2023-05-16T14:57:34;14.60;99.90
40291;DHT22;26000;48.304;13.626;2023-05-16T15:00:00;14.60;99.90
40291;DHT22;26000;48.304;13.626;2023-05-16T15:02:26;14.60;99.90
40291;DHT22;26000;48.304;13.626;2023-05-16T15:04:52;14.60;99.90
40291;DHT22;26000;48.304;13.626;2023-05-16T15:07:19;14.60;99.90
40291;DHT22;26000;48.304;13.626;2023-05-16T15:09:45;14.60;99.90
40291;DHT22;26000;48.304;13.626;2023-05-16T15:12:10;14.60;99.90
40291;DHT22;26000;48.304;13.626;2023-05-16T15:14:36;14.80;99.90
40291;DHT22;26000;48.304;13.626;2023-05-16T15:17:01;14.80;99.90
40291;DHT22;26000;48.304;13.626;2023-05-16T15:19:28;14.70;99.90
40291;DHT22;26000;48.304;13.626;2023-05-16T15:21:53;14.70;99.90
40291;DHT22;26000;48.304;13.626;2023-05-16T15:24:19;14.70;99.90
40291;DHT22;26000;48.304;13.626;2023-05-16T15:26:45;14.80;99.90
40291;DHT22;26000;48.304;13.626;2023-05-16T15:29:11;14.80;99.90
40291;DHT22;26000;48.304;13.626;2023-05-16T15:31:36;14.80;99.90
40291;DHT22;26000;48.304;13.626;2023-05-16T15:34:02;14.70;99.90
40291;DHT22;26000;48.304;13.626;2023-05-16T15:36:27;14.80;99.90
40291;DHT22;26000;48.304;13.626;2023-05-16T15:38:53;14.90;99.90
40291;DHT22;26000;48.304;13.626;2023-05-16T15:41:19;14.80;99.90
40291;DHT22;26000;48.304;13.626;2023-05-16T15:43:45;14.80;99.90
40291;DHT22;26000;48.304;13.626;2023-05-16T15:46:10;14.70;99.90